Time;durP1;ratioP1;P1;durP2;ratioP2;P2;SDS_P1;SDS_P2;PMS_P1;PMS_P2;Temp;Humidity;BMP_temperature;BMP_pressure;BME280_temperature;BME280_humidity;BME280_pressure;Samples;Min_cycle;Max_cycle;Signal;HPM_P1;HPM_P2
2022/10/23 00:01:31;;;;;;;2.67;2.20;;;;;;;-5.21;61.25;97474.38;6299027;28;20052;-69
2022/10/23 00:04:35;;;;;;;5.30;3.08;;;;;;;-5.28;61.71;97477.78;6297188;28;20070;-69
2022/10/23 00:07:38;;;;;;;;;;;;;;;-5.31;61.21;97472.63;6299203;28;20139;-69
2022/10/23 00:10:43;;;;;;;3.35;2.30;;;;;;;-5.33;61.83;97475.16;6298644;28;20003;-68
2022/10/23 00:13:47;;;;;;;2.47;1.67;;;;;;;-5.16;61.40;97482.13;6298608;28;20048;-68
2022/10/23 00:16:53;;;;;;;3.13;1.90;;;;;;;-5.10;61.20;97485.59;6298575;28;20052;-68
2022/10/23 00:19:55;;;;;;;3.70;2.10;;;;;;;-5.12;60.99;97494.13;6298567;28;20044;-68
2022/10/23 00:22:56;;;;;;;5.57;1.80;;;;;;;-5.08;60.81;97481.34;6298685;28;20187;-68
2022/10/23 00:25:59;;;;;;;3.15;2.10;;;;;;;-5.05;61.03;97501.03;6298508;28;20032;-68
2022/10/23 00:29:03;;;;;;;3.13;2.03;;;;;;;-5.01;61.36;97493.38;6300281;28;20048;-70
2022/10/23 00:32:04;;;;;;;2.72;1.48;;;;;;;-4.83;60.62;97494.31;6298166;28;20046;-68
2022/10/23 00:35:05;;;;;;;3.35;1.70;;;;;;;-4.72;60.30;97500.38;6298090;28;20053;-68
2022/10/23 00:38:10;;;;;;;2.80;1.40;;;;;;;-4.68;59.84;97502.09;6298344;28;20058;-70
2022/10/23 00:41:20;;;;;;;2.42;1.20;;;;;;;-4.41;59.50;97516.78;6298012;28;20413;-69
2022/10/23 00:44:22;;;;;;;1.73;1.10;;;;;;;-4.29;59.09;97518.53;6296909;28;20052;-68
2022/10/23 00:47:23;;;;;;;1.38;0.80;;;;;;;-4.20;59.05;97516.00;6298175;28;20044;-70
2022/10/23 00:50:31;;;;;;;1.25;0.90;;;;;;;-4.07;58.75;97522.91;6297887;28;20453;-68
2022/10/23 00:53:36;;;;;;;0.80;0.70;;;;;;;-3.99;58.46;97525.50;6297826;28;20055;-68
2022/10/23 00:56:41;;;;;;;0.85;0.73;;;;;;;-3.94;58.39;97522.94;6297533;28;20056;-68
2022/10/23 00:59:48;;;;;;;1.48;0.70;;;;;;;-3.86;58.40;97528.97;6297646;28;20045;-68
2022/10/23 01:02:53;;;;;;;0.80;0.63;;;;;;;-3.69;57.64;97535.00;6296938;28;20127;-68
2022/10/23 01:06:11;;;;;;;1.38;0.90;;;;;;;-3.54;57.32;97530.72;6297320;28;20044;-69
2022/10/23 01:09:42;;;;;;;1.30;0.93;;;;;;;-3.50;57.23;97532.47;6297339;28;20071;-70
2022/10/23 01:13:06;;;;;;;0.82;0.63;;;;;;;-3.65;57.24;97549.59;6297336;28;20032;-68
2022/10/23 01:16:21;;;;;;;1.00;0.70;;;;;;;-3.63;57.21;97547.00;6296845;28;20057;-68
2022/10/23 01:19:50;;;;;;;2.47;0.70;;;;;;;-3.63;57.34;97554.72;6297000;28;20391;-68
2022/10/23 01:23:12;;;;;;;2.55;0.90;;;;;;;-3.57;57.39;97559.03;6297140;28;20067;-69
2022/10/23 01:26:48;;;;;;;2.25;0.70;;;;;;;-3.51;57.19;97559.03;6297067;28;20414;-70
2022/10/23 01:30:04;;;;;;;1.25;0.75;;;;;;;-3.59;57.26;97555.56;6296737;28;20198;-70
2022/10/23 01:33:12;;;;;;;1.35;0.60;;;;;;;-3.57;57.15;97559.03;6297124;28;20079;-70
2022/10/23 01:36:15;;;;;;;0.73;0.60;;;;;;;-3.57;57.18;97564.16;6296691;28;20588;-68
2022/10/23 01:39:32;;;;;;;2.92;0.98;;;;;;;-3.50;56.80;97571.06;6296275;28;20131;-68
2022/10/23 01:42:44;;;;;;;1.63;0.75;;;;;;;-3.59;57.25;97578.72;6295438;28;20528;-68
2022/10/23 01:45:52;;;;;;;2.15;0.70;;;;;;;-3.67;57.25;97577.00;6296335;28;20099;-68
2022/10/23 01:49:00;;;;;;;2.28;0.90;;;;;;;-3.70;57.38;97584.72;6296503;28;20048;-69
2022/10/23 01:52:10;;;;;;;3.45;1.00;;;;;;;-3.75;57.48;97583.84;6295182;28;20109;-69
2022/10/23 01:55:13;;;;;;;1.63;0.77;;;;;;;-3.92;57.85;97583.78;6296404;28;20040;-69
2022/10/23 01:58:17;;;;;;;2.38;0.77;;;;;;;-4.00;57.98;97580.31;6296407;28;20036;-70
2022/10/23 02:01:26;;;;;;;1.95;0.88;;;;;;;-4.03;58.52;97587.19;6295885;28;20078;-68
2022/10/23 02:04:37;;;;;;;1.58;0.70;;;;;;;-4.02;58.47;97594.03;6295949;28;20053;-69
2022/10/23 02:07:38;;;;;;;1.17;0.80;;;;;;;-4.10;58.78;97600.00;6295826;28;20174;-69
2022/10/23 02:10:58;;;;;;;1.73;0.80;;;;;;;-4.12;59.18;97604.28;6295999;28;20042;-69
2022/10/23 02:14:12;;;;;;;2.50;0.77;;;;;;;-4.02;58.98;97612.88;6295675;28;20032;-69
2022/10/23 02:17:26;;;;;;;1.15;0.80;;;;;;;-3.90;58.62;97617.22;6295664;28;20036;-69
2022/10/23 02:20:41;;;;;;;1.88;0.80;;;;;;;-3.77;58.34;97618.97;6295822;28;20186;-68
2022/10/23 02:24:11;;;;;;;2.50;0.55;;;;;;;-3.68;57.98;97618.16;6295756;28;20135;-68
2022/10/23 02:27:33;;;;;;;3.17;1.00;;;;;;;-3.59;57.20;97623.34;6294826;28;20048;-70
2022/10/23 02:30:39;;;;;;;2.75;0.82;;;;;;;-3.53;57.38;97619.94;6295569;28;20052;-69
2022/10/23 02:33:43;;;;;;;2.17;1.00;;;;;;;-3.50;57.02;97632.78;6295742;28;20395;-69
2022/10/23 02:36:45;;;;;;;1.27;0.70;;;;;;;-3.56;57.17;97632.78;6295532;28;20040;-68
2022/10/23 02:39:49;;;;;;;1.33;0.80;;;;;;;-3.63;57.17;97619.88;6295819;28;20131;-69
2022/10/23 02:43:29;;;;;;;2.47;0.80;;;;;;;-3.54;57.33;97633.63;6295619;28;20067;-69
2022/10/23 02:46:41;;;;;;;1.63;1.00;;;;;;;-3.53;57.07;97637.94;6284284;28;20052;-68
2022/10/23 02:49:54;;;;;;;1.30;0.90;;;;;;;-3.51;57.27;97642.25;6295413;28;20484;-69
2022/10/23 02:53:08;;;;;;;1.40;0.75;;;;;;;-3.38;56.89;97643.13;6294223;28;20253;-69
2022/10/23 02:56:40;;;;;;;2.70;1.10;;;;;;;-3.14;56.32;97641.44;6295400;28;20045;-69
2022/10/23 03:00:12;;;;;;;1.02;0.70;;;;;;;-3.01;55.75;97648.31;6295202;28;20041;-69
2022/10/23 03:03:19;;;;;;;1.73;0.77;;;;;;;-2.97;55.42;97650.06;6292185;28;20422;-69
2022/10/23 03:06:23;;;;;;;0.77;0.60;;;;;;;-2.94;55.31;97652.63;6295368;28;20078;-69
2022/10/23 03:09:28;;;;;;;2.53;0.85;;;;;;;-2.81;55.10;97671.53;6295176;28;20049;-69
2022/10/23 03:12:32;;;;;;;7.43;1.60;;;;;;;-2.83;55.33;97674.09;6295397;28;20498;-69
2022/10/23 03:15:33;;;;;;;4.57;1.48;;;;;;;-2.99;55.41;97664.66;6295266;28;20067;-69
2022/10/23 03:18:35;;;;;;;1.70;1.15;;;;;;;-3.00;55.78;97683.50;6294830;28;20395;-69
2022/10/23 03:21:37;;;;;;;3.25;1.10;;;;;;;-3.03;55.98;97691.22;6295083;28;20425;-69
2022/10/23 03:24:41;;;;;;;3.72;1.05;;;;;;;-3.02;56.22;97687.81;6295203;28;20527;-69
2022/10/23 03:27:42;;;;;;;2.45;1.27;;;;;;;-3.02;56.22;97695.53;6298663;28;20414;-69
2022/10/23 03:30:48;;;;;;;2.90;1.50;;;;;;;-3.05;56.65;97698.09;6299739;28;20040;-69
2022/10/23 03:33:51;;;;;;;2.65;1.58;;;;;;;-3.05;56.59;97708.41;6299874;28;20044;-70
2022/10/23 03:36:53;;;;;;;7.28;2.65;;;;;;;-3.08;56.69;97716.13;6299407;28;20053;-70
2022/10/23 03:39:54;;;;;;;10.15;2.95;;;;;;;-3.09;56.85;97702.38;6299340;28;20608;-70
2022/10/23 03:42:56;;;;;;;12.57;5.70;;;;;;;-3.07;56.86;97712.69;6299411;28;20074;-68
2022/10/23 03:46:00;;;;;;;6.47;3.92;;;;;;;-3.09;57.12;97716.97;6299301;28;20036;-69
2022/10/23 03:49:07;;;;;;;5.35;3.30;;;;;;;-3.07;57.14;97716.13;6299098;28;20070;-69
2022/10/23 03:52:11;;;;;;;13.05;4.15;;;;;;;-3.03;56.76;97722.13;6298012;28;20037;-69
2022/10/23 03:55:12;;;;;;;9.82;3.45;;;;;;;-3.01;57.04;97720.41;6299045;28;20082;-69
2022/10/23 03:58:16;;;;;;;5.38;2.58;;;;;;;-2.93;56.71;97731.59;6299037;28;20036;-69
2022/10/23 04:01:20;;;;;;;5.90;2.53;;;;;;;-2.91;56.66;97732.47;6298911;28;20040;-69
2022/10/23 04:04:26;;;;;;;3.83;2.08;;;;;;;-2.79;56.18;97742.78;6298805;28;20040;-69
2022/10/23 04:07:27;;;;;;;3.72;1.98;;;;;;;-2.63;55.74;97742.78;6298393;28;20053;-69
2022/10/23 04:10:31;;;;;;;3.05;1.50;;;;;;;-2.45;55.13;97747.13;6298881;28;20040;-69
2022/10/23 04:13:32;;;;;;;4.38;1.85;;;;;;;-2.36;55.00;97753.13;6298472;28;20064;-69
2022/10/23 04:16:33;;;;;;;1.83;1.13;;;;;;;-2.22;55.14;97765.16;6298361;28;20040;-69
2022/10/23 04:19:36;;;;;;;3.13;1.40;;;;;;;-2.21;54.90;97756.56;6298570;28;20037;-69
2022/10/23 04:22:37;;;;;;;2.72;1.20;;;;;;;-2.13;53.92;97757.44;6298031;28;20512;-69
2022/10/23 04:25:41;;;;;;;5.50;1.67;;;;;;;-2.03;54.42;97772.03;6298335;28;20036;-68
2022/10/23 04:28:42;;;;;;;;;;;;;;;-1.89;53.74;97770.31;6298886;28;20044;-69
2022/10/23 04:31:44;;;;;;;2.40;1.70;;;;;;;-1.91;54.13;97771.16;6298053;28;20070;-69
2022/10/23 04:34:45;;;;;;;3.45;1.63;;;;;;;-1.96;54.66;97773.75;6298227;28;20102;-69
2022/10/23 04:37:50;;;;;;;2.05;1.38;;;;;;;-1.85;54.50;97782.34;6297949;28;20037;-69
2022/10/23 04:40:51;;;;;;;;;;;;;;;-1.88;54.45;97774.59;6298182;28;20047;-69
2022/10/23 04:43:54;;;;;;;2.00;0.95;;;;;;;-1.84;54.08;97786.66;6297684;28;19921;-69
2022/10/23 04:46:56;;;;;;;1.73;0.82;;;;;;;-1.72;54.02;97777.19;6297859;28;20041;-69
2022/10/23 04:50:03;;;;;;;1.67;1.00;;;;;;;-1.53;53.57;97778.81;6297487;28;20049;-69
2022/10/23 04:53:08;;;;;;;0.77;0.65;;;;;;;-1.32;53.31;97782.22;6297315;28;20226;-69
2022/10/23 04:56:15;;;;;;;0.90;0.70;;;;;;;-1.27;51.91;97773.59;6297492;28;20525;-69
2022/10/23 04:59:16;;;;;;;1.17;0.70;;;;;;;-1.20;52.26;97779.59;6297543;28;20043;-69
2022/10/23 05:02:20;;;;;;;3.25;1.00;;;;;;;-1.13;51.94;97773.56;6297649;28;20421;-68
2022/10/23 05:05:24;;;;;;;3.05;1.45;;;;;;;-1.06;52.11;97775.22;6297569;28;20048;-69
2022/10/23 05:08:25;;;;;;;1.77;1.02;;;;;;;-0.94;51.27;97777.75;6296638;28;20130;-69
2022/10/23 05:11:27;;;;;;;2.05;1.20;;;;;;;-0.86;51.67;97776.88;6295332;28;20426;-69
2022/10/23 05:14:28;;;;;;;6.00;2.85;;;;;;;2.57;46.14;97780.59;6296980;28;20056;-69
2022/10/23 05:17:35;;;;;;;3.60;1.52;;;;;;;7.67;36.33;97773.91;6297182;28;20040;-69
2022/10/23 05:20:39;;;;;;;2.40;1.05;;;;;;;10.69;30.80;97769.16;6296463;28;20056;-69
2022/10/23 05:23:44;;;;;;;1.42;1.10;;;;;;;12.55;26.09;97796.00;6295368;28;20519;-69
2022/10/23 05:26:50;;;;;;;1.40;0.98;;;;;;;13.73;25.16;97783.59;6296836;28;20040;-68
2022/10/23 05:29:54;;;;;;;1.70;1.20;;;;;;;14.93;23.95;97781.06;6296426;28;20044;-70
2022/10/23 05:32:56;;;;;;;1.42;0.95;;;;;;;16.45;22.51;97788.91;6295489;28;20043;-70
2022/10/23 05:36:00;;;;;;;1.73;0.80;;;;;;;17.23;20.19;97791.81;6296518;28;20040;-68
2022/10/23 05:39:04;;;;;;;1.55;0.60;;;;;;;17.36;20.02;97791.72;6296536;28;20131;-67
2022/10/23 05:42:08;;;;;;;2.53;0.65;;;;;;;18.59;19.17;97787.22;6296173;28;20063;-68
2022/10/23 05:45:10;;;;;;;1.40;0.70;;;;;;;19.90;18.13;97795.66;6296251;28;20513;-70
2022/10/23 05:48:18;;;;;;;1.55;0.73;;;;;;;21.32;17.35;97795.22;6295795;28;20041;-69
2022/10/23 05:51:21;;;;;;;1.83;1.20;;;;;;;22.29;16.59;97794.88;6296033;28;20052;-68
2022/10/23 05:54:26;;;;;;;4.18;1.90;;;;;;;23.14;15.83;97783.78;6295773;28;20086;-68
2022/10/23 05:57:34;;;;;;;1.85;1.30;;;;;;;23.80;14.15;97785.06;6295746;28;20056;-68
2022/10/23 06:00:36;;;;;;;1.67;1.13;;;;;;;24.39;14.11;97791.34;6295318;28;20048;-68
2022/10/23 06:03:38;;;;;;;2.28;0.90;;;;;;;23.54;13.99;97791.28;6295816;28;20044;-68
2022/10/23 06:06:40;;;;;;;1.05;0.85;;;;;;;23.33;14.28;97791.66;6295663;28;20041;-68
2022/10/23 06:09:41;;;;;;;1.88;1.10;;;;;;;23.51;13.82;97791.59;6294643;28;20182;-69
2022/10/23 06:12:45;;;;;;;1.55;0.70;;;;;;;23.80;13.54;97790.44;6295434;28;20036;-69
2022/10/23 06:15:54;;;;;;;0.95;0.65;;;;;;;24.23;13.26;97797.50;6295495;28;20045;-69
2022/10/23 06:18:59;;;;;;;1.88;0.90;;;;;;;24.08;13.14;97789.22;6295363;28;20045;-69
2022/10/23 06:22:00;;;;;;;1.20;0.70;;;;;;;23.76;12.93;97795.28;6295359;28;20158;-68
2022/10/23 06:25:04;;;;;;;2.40;0.80;;;;;;;24.30;13.00;97803.09;6295542;28;20551;-68
2022/10/23 06:28:08;;;;;;;0.93;0.70;;;;;;;25.37;12.25;97804.09;6296198;28;20048;-69
2022/10/23 06:31:18;;;;;;;1.55;0.60;;;;;;;26.25;11.56;97817.53;6295657;28;20531;-68
2022/10/23 06:34:20;;;;;;;1.40;0.65;;;;;;;26.87;11.71;97814.00;6295426;28;20163;-68
2022/10/23 06:37:25;;;;;;;0.75;0.50;;;;;;;27.93;11.10;97814.91;6295244;28;20130;-69
2022/10/23 06:40:29;;;;;;;2.28;0.88;;;;;;;29.09;10.19;97819.47;6295154;28;20059;-69
2022/10/23 06:43:33;;;;;;;1.60;1.00;;;;;;;29.77;10.07;97827.16;6294954;28;20119;-70
2022/10/23 06:46:40;;;;;;;2.03;1.17;;;;;;;29.72;9.59;97825.03;6295144;28;20429;-68
2022/10/23 06:49:43;;;;;;;2.25;1.20;;;;;;;29.75;9.46;97818.34;6295350;28;20162;-68
2022/10/23 06:52:45;;;;;;;1.15;0.80;;;;;;;29.78;9.63;97818.00;6294536;28;20474;-68
2022/10/23 06:55:49;;;;;;;1.40;0.85;;;;;;;30.07;9.58;97816.06;6294795;28;20051;-68
2022/10/23 06:58:52;;;;;;;2.30;0.88;;;;;;;30.60;9.34;97816.31;6294396;28;20044;-68
2022/10/23 07:01:54;;;;;;;1.92;0.93;;;;;;;31.12;8.83;97819.41;6297860;28;20047;-68
2022/10/23 07:04:55;;;;;;;1.65;1.08;;;;;;;31.57;8.77;97833.25;6300308;28;20045;-69
2022/10/23 07:08:00;;;;;;;2.15;0.70;;;;;;;31.41;8.86;97824.44;6299835;28;20448;-69
2022/10/23 07:11:06;;;;;;;1.17;0.70;;;;;;;31.76;8.44;97827.78;6299782;28;20506;-69
2022/10/23 07:14:13;;;;;;;1.25;0.65;;;;;;;32.52;8.56;97831.81;6300035;28;20106;-69
2022/10/23 07:17:19;;;;;;;1.42;0.70;;;;;;;33.23;7.51;97843.59;6298540;28;20044;-69
2022/10/23 07:20:21;;;;;;;1.02;0.50;;;;;;;32.61;7.84;97835.97;6299026;28;20059;-69
2022/10/23 07:23:26;;;;;;;1.98;0.77;;;;;;;32.09;7.87;97829.63;6299320;28;20102;-69
2022/10/23 07:26:31;;;;;;;2.05;0.80;;;;;;;32.31;8.09;97829.38;6299417;28;20040;-69
2022/10/23 07:29:37;;;;;;;1.60;0.80;;;;;;;32.55;7.89;97825.91;6298367;28;20036;-69
2022/10/23 07:32:44;;;;;;;1.35;0.68;;;;;;;32.14;7.65;97818.09;6299166;28;20040;-69
2022/10/23 07:35:48;;;;;;;1.50;0.80;;;;;;;32.75;7.12;97819.53;6298635;28;20045;-69
2022/10/23 07:38:51;;;;;;;0.95;0.85;;;;;;;33.11;7.20;97829.00;6298401;28;20572;-69
2022/10/23 07:41:52;;;;;;;3.75;0.82;;;;;;;34.42;6.85;97834.34;6298724;28;20154;-69
2022/10/23 07:44:54;;;;;;;1.70;0.80;;;;;;;33.97;6.87;97822.81;6298880;28;20533;-69
2022/10/23 07:47:57;;;;;;;1.90;1.13;;;;;;;32.62;7.09;97826.75;6299293;28;20037;-69
2022/10/23 07:51:02;;;;;;;2.65;0.88;;;;;;;32.03;7.48;97822.31;6298907;28;20048;-69
2022/10/23 07:54:03;;;;;;;2.35;1.00;;;;;;;32.14;7.65;97820.81;6298808;28;20534;-69
2022/10/23 07:57:10;;;;;;;1.00;0.68;;;;;;;32.70;7.30;97825.66;6298917;28;20457;-69
2022/10/23 08:00:12;;;;;;;0.77;0.45;;;;;;;32.88;7.33;97824.94;6298825;28;20503;-69
2022/10/23 08:03:14;;;;;;;1.10;0.50;;;;;;;32.85;7.59;97809.00;6298766;28;20071;-70
2022/10/23 08:06:18;;;;;;;2.42;0.75;;;;;;;33.93;7.41;97816.16;6298610;28;20127;-68
2022/10/23 08:09:23;;;;;;;1.90;0.68;;;;;;;34.81;6.59;97818.50;6298356;28;20135;-68
2022/10/23 08:12:26;;;;;;;1.02;0.70;;;;;;;35.00;6.63;97815.72;6297793;28;20048;-68
2022/10/23 08:15:30;;;;;;;1.35;0.57;;;;;;;34.71;6.49;97812.75;6298516;28;20076;-68
2022/10/23 08:18:34;;;;;;;0.47;0.40;;;;;;;34.56;6.57;97807.69;6297724;28;20110;-68
2022/10/23 08:21:38;;;;;;;1.15;0.55;;;;;;;32.86;6.84;97810.66;6298307;28;20041;-69
2022/10/23 08:24:40;;;;;;;3.35;1.00;;;;;;;31.93;7.56;97791.97;6298244;28;20124;-69
2022/10/23 08:27:44;;;;;;;1.17;0.63;;;;;;;30.74;7.42;97796.28;6297991;28;20515;-69
2022/10/23 08:30:46;;;;;;;0.50;0.40;;;;;;;30.10;8.18;97793.94;6296278;28;20052;-69
2022/10/23 08:33:50;;;;;;;0.90;0.60;;;;;;;29.56;8.06;97786.50;6297792;28;20056;-69
2022/10/23 08:36:54;;;;;;;1.88;0.40;;;;;;;30.03;8.52;97798.50;6297982;28;20036;-69
2022/10/23 08:39:56;;;;;;;1.65;0.75;;;;;;;31.25;7.98;97803.94;6297146;28;20094;-68
2022/10/23 08:43:04;;;;;;;1.08;0.70;;;;;;;31.07;7.97;97806.41;6297135;28;20048;-68
2022/10/23 08:46:14;;;;;;;1.75;0.40;;;;;;;32.07;7.59;97807.22;6297551;28;20050;-68
2022/10/23 08:49:40;;;;;;;1.00;0.60;;;;;;;33.76;6.87;97794.06;6297405;28;20048;-68
2022/10/23 08:52:52;;;;;;;1.48;0.77;;;;;;;32.29;7.28;97798.78;6297261;28;20417;-68
2022/10/23 08:56:08;;;;;;;1.42;0.65;;;;;;;31.98;7.40;97800.34;6296961;28;20044;-68
2022/10/23 08:59:36;;;;;;;0.90;0.60;;;;;;;31.93;7.35;97794.69;6296932;28;20044;-68
2022/10/23 09:02:46;;;;;;;1.60;0.73;;;;;;;31.93;7.34;97795.56;6297033;28;20044;-68
2022/10/23 09:06:07;;;;;;;1.02;0.60;;;;;;;32.61;7.47;97808.72;6295190;28;20047;-68
2022/10/23 09:09:35;;;;;;;1.70;0.60;;;;;;;30.70;8.21;97784.16;6296848;28;20147;-68
2022/10/23 09:12:38;;;;;;;1.42;0.50;;;;;;;29.60;8.37;97772.34;6296826;28;20127;-67
2022/10/23 09:15:51;;;;;;;1.63;0.77;;;;;;;30.06;8.30;97774.50;6296932;28;20131;-68
2022/10/23 09:18:54;;;;;;;1.05;0.40;;;;;;;30.46;8.17;97776.56;6296771;28;20045;-69
2022/10/23 09:22:02;;;;;;;2.10;0.50;;;;;;;29.60;8.19;97774.22;6296909;28;20088;-69
2022/10/23 09:25:09;;;;;;;1.25;0.55;;;;;;;29.59;8.64;97775.25;6295386;28;20048;-68
2022/10/23 09:28:19;;;;;;;2.30;0.60;;;;;;;29.03;8.95;97771.47;6296699;28;20066;-69
2022/10/23 09:31:21;;;;;;;1.90;0.50;;;;;;;28.19;9.10;97760.31;6296511;28;20040;-68
2022/10/23 09:34:28;;;;;;;1.23;0.80;;;;;;;27.43;9.30;97767.75;6296403;28;20036;-69
2022/10/23 09:37:40;;;;;;;1.52;0.85;;;;;;;26.72;9.81;97759.06;6296587;28;20524;-69
2022/10/23 09:40:44;;;;;;;1.75;1.00;;;;;;;27.12;9.56;97757.91;6296131;28;20123;-68
2022/10/23 09:43:45;;;;;;;1.67;0.70;;;;;;;27.10;9.49;97768.06;6295997;28;20048;-68
2022/10/23 09:47:17;;;;;;;3.38;1.52;;;;;;;26.41;9.87;97763.47;6296175;28;20040;-68
2022/10/23 09:50:26;;;;;;;1.23;0.93;;;;;;;27.29;9.18;97756.78;6296079;28;20044;-69
2022/10/23 09:53:32;;;;;;;1.27;1.00;;;;;;;26.64;9.67;97768.09;6295561;28;20502;-68
2022/10/23 09:56:40;;;;;;;2.42;0.73;;;;;;;24.38;10.48;97776.22;6294411;28;20533;-69
2022/10/23 09:59:49;;;;;;;4.05;1.85;;;;;;;24.42;10.58;97753.34;6295990;28;20040;-69
2022/10/23 10:02:54;;;;;;;1.15;0.80;;;;;;;24.26;10.97;97753.28;6296063;28;20052;-68
2022/10/23 10:06:00;;;;;;;3.25;1.10;;;;;;;23.42;11.66;97757.63;6295227;28;20184;-68
2022/10/23 10:09:09;;;;;;;2.00;0.80;;;;;;;23.61;11.51;97751.16;6295970;28;20044;-69
2022/10/23 10:12:38;;;;;;;0.85;0.65;;;;;;;22.99;11.73;97741.41;6295396;28;20129;-69
2022/10/23 10:15:51;;;;;;;0.88;0.68;;;;;;;23.53;12.02;97746.63;6294448;28;20528;-68
2022/10/23 10:19:21;;;;;;;1.05;0.70;;;;;;;23.93;11.53;97747.84;6294969;28;20476;-68
2022/10/23 10:22:26;;;;;;;1.42;0.75;;;;;;;23.63;11.61;97752.69;6295463;28;20153;-69
2022/10/23 10:25:43;;;;;;;1.05;0.90;;;;;;;22.97;12.15;97742.56;6295519;28;20167;-69
2022/10/23 10:29:01;;;;;;;1.80;0.73;;;;;;;22.05;12.72;97765.94;6295471;28;20135;-68
2022/10/23 10:32:18;;;;;;;0.85;0.63;;;;;;;21.79;12.92;97738.97;6295074;28;20501;-69
2022/10/23 10:35:25;;;;;;;2.28;0.93;;;;;;;20.63;13.81;97746.28;6294994;28;20074;-69
2022/10/23 10:38:42;;;;;;;2.30;1.05;;;;;;;19.62;14.65;97749.16;6295316;28;20186;-69
2022/10/23 10:42:04;;;;;;;1.15;0.88;;;;;;;19.61;15.12;97753.63;6295133;28;20052;-69
2022/10/23 10:45:05;;;;;;;2.55;0.80;;;;;;;19.93;14.68;97747.31;6291246;28;20049;-68
2022/10/23 10:48:31;;;;;;;2.15;0.98;;;;;;;20.36;14.73;97738.09;6294974;28;20037;-68
2022/10/23 10:52:02;;;;;;;1.33;0.90;;;;;;;19.97;15.02;97754.06;6295315;28;20040;-68
2022/10/23 10:55:34;;;;;;;0.70;0.63;;;;;;;19.40;15.26;97752.84;6292014;28;20053;-68
2022/10/23 10:58:45;;;;;;;1.92;1.08;;;;;;;18.08;16.04;97750.56;6293811;28;20044;-69
2022/10/23 11:02:30;;;;;;;4.70;2.00;;;;;;;17.74;16.75;97756.75;6295104;28;20409;-69
2022/10/23 11:05:44;;;;;;;2.45;1.73;;;;;;;17.62;16.75;97751.59;6284167;28;20037;-69
2022/10/23 11:08:46;;;;;;;2.20;1.10;;;;;;;17.23;17.02;97751.09;6295102;28;20121;-69
2022/10/23 11:11:48;;;;;;;1.05;0.82;;;;;;;16.51;17.64;97749.44;6295136;28;20052;-69
2022/10/23 11:14:53;;;;;;;3.28;1.85;;;;;;;16.53;17.68;97750.19;6294742;28;20071;-69
2022/10/23 11:17:58;;;;;;;3.10;2.17;;;;;;;16.51;17.65;97741.47;6294939;28;20036;-68
2022/10/23 11:21:33;;;;;;;4.20;1.80;;;;;;;16.71;17.40;97747.09;6294968;28;20043;-69
2022/10/23 11:25:12;;;;;;;5.35;3.25;;;;;;;16.44;17.47;97753.50;6294529;28;20040;-68
2022/10/23 11:28:55;;;;;;;3.42;2.20;;;;;;;15.42;18.30;97759.13;6295018;28;20419;-68
2022/10/23 11:32:13;;;;;;;4.32;1.70;;;;;;;15.77;17.61;97750.47;6294386;28;20121;-69
2022/10/23 11:35:44;;;;;;;3.75;1.20;;;;;;;15.00;17.66;97762.00;6294726;28;20036;-69
2022/10/23 11:38:50;;;;;;;2.00;1.42;;;;;;;14.06;18.31;97763.84;6293041;28;20053;-69
2022/10/23 11:42:03;;;;;;;5.32;3.38;;;;;;;13.95;18.58;97761.03;6294822;28;20447;-69
2022/10/23 11:45:34;;;;;;;5.90;3.03;;;;;;;13.90;18.48;97759.56;6294819;28;20417;-70
2022/10/23 11:48:42;;;;;;;5.25;2.58;;;;;;;13.46;18.94;97749.97;6297993;28;20576;-69
2022/10/23 11:51:46;;;;;;;3.75;1.70;;;;;;;13.14;19.26;97753.75;6299172;28;20044;-69
2022/10/23 11:55:06;;;;;;;3.67;1.98;;;;;;;12.90;19.56;97751.63;6298916;28;20557;-69
2022/10/23 11:58:30;;;;;;;4.72;1.83;;;;;;;12.39;20.29;97761.69;6297509;28;20437;-68
2022/10/23 12:01:44;;;;;;;2.70;1.15;;;;;;;10.70;22.22;97760.34;6298548;28;20044;-69
2022/10/23 12:04:51;;;;;;;2.10;1.35;;;;;;;9.11;24.08;97762.69;6298620;28;20127;-69
2022/10/23 12:07:57;;;;;;;2.35;1.40;;;;;;;8.02;25.73;97765.50;6298746;28;20131;-69
2022/10/23 12:10:58;;;;;;;1.63;1.50;;;;;;;7.13;26.66;97768.94;6297884;28;20044;-69
2022/10/23 12:14:02;;;;;;;1.42;1.20;;;;;;;6.49;27.66;97761.63;6297680;28;20560;-70
2022/10/23 12:17:22;;;;;;;2.53;1.30;;;;;;;6.22;28.39;97776.47;6298362;28;20055;-70
2022/10/23 12:20:35;;;;;;;1.33;0.98;;;;;;;5.97;28.81;97779.03;6297839;28;20391;-69
2022/10/23 12:24:01;;;;;;;3.67;1.53;;;;;;;5.77;28.68;97776.16;6298318;28;20075;-69
2022/10/23 12:27:24;;;;;;;5.97;2.97;;;;;;;5.60;28.82;97781.88;6297818;28;20075;-69
2022/10/23 12:30:44;;;;;;;5.80;3.17;;;;;;;5.55;28.62;97775.97;6298105;28;20044;-69
2022/10/23 12:34:12;;;;;;;3.55;1.83;;;;;;;5.58;28.99;97781.09;6297643;28;20417;-69
2022/10/23 12:37:16;;;;;;;3.63;1.58;;;;;;;5.07;29.68;97782.56;6297893;28;20227;-69
2022/10/23 12:40:28;;;;;;;1.70;1.00;;;;;;;4.66;30.25;97778.50;6297688;28;20040;-68
2022/10/23 12:43:36;;;;;;;2.88;1.40;;;;;;;4.33;30.84;97781.09;6296227;28;20059;-70
2022/10/23 12:46:45;;;;;;;3.22;2.15;;;;;;;4.02;31.72;97784.47;6297704;28;20055;-70
2022/10/23 12:49:52;;;;;;;4.68;2.38;;;;;;;3.59;32.36;97777.66;6298073;28;20175;-71
2022/10/23 12:53:02;;;;;;;3.13;1.80;;;;;;;3.39;32.84;97787.63;6297471;28;20513;-70
2022/10/23 12:56:04;;;;;;;2.17;1.63;;;;;;;3.13;33.04;97789.03;6297434;28;20139;-69
2022/10/23 12:59:16;;;;;;;1.33;1.00;;;;;;;2.96;33.69;97785.91;6297105;28;20119;-70
2022/10/23 13:02:27;;;;;;;2.15;1.10;;;;;;;2.88;33.49;97788.66;6297514;28;20044;-69
2022/10/23 13:05:35;;;;;;;2.85;1.83;;;;;;;2.60;33.82;97798.72;6297454;28;20052;-69
2022/10/23 13:08:42;;;;;;;2.58;1.70;;;;;;;2.45;34.30;97793.81;6297036;28;20198;-69
2022/10/23 13:11:46;;;;;;;3.65;2.00;;;;;;;2.38;34.10;97792.22;6296805;28;20048;-69
2022/10/23 13:15:02;;;;;;;4.20;1.48;;;;;;;2.41;34.30;97797.38;6296904;28;20040;-69
2022/10/23 13:18:09;;;;;;;3.92;1.50;;;;;;;2.26;34.19;97798.47;6297056;28;20044;-69
2022/10/23 13:21:21;;;;;;;2.58;2.00;;;;;;;2.35;35.04;97794.84;6296630;28;20462;-69
2022/10/23 13:24:29;;;;;;;;;;;;;;;2.30;34.64;97810.53;6296918;28;20041;-68
2022/10/23 13:27:32;;;;;;;4.32;2.25;;;;;;;2.06;35.53;97814.38;6295124;28;19998;-70
2022/10/23 13:30:38;;;;;;;2.95;1.67;;;;;;;1.94;35.62;97807.63;6295955;28;20048;-70
2022/10/23 13:33:53;;;;;;;3.22;1.52;;;;;;;1.93;36.25;97812.88;6296359;28;20032;-69
2022/10/23 13:37:20;;;;;;;2.88;1.15;;;;;;;1.83;36.61;97813.88;6296357;28;20040;-69
2022/10/23 13:40:24;;;;;;;1.63;1.35;;;;;;;1.59;37.13;97810.75;6296320;28;20044;-68
2022/10/23 13:43:26;;;;;;;;;;;;;;;1.78;37.83;97820.00;6296130;28;20418;-69
2022/10/23 13:46:30;;;;;;;4.75;1.50;;;;;;;1.63;38.59;97819.34;6295907;28;19961;-69
2022/10/23 13:49:32;;;;;;;1.30;0.88;;;;;;;1.59;38.41;97821.16;6295976;28;20041;-69
2022/10/23 13:52:36;;;;;;;3.08;1.92;;;;;;;1.34;39.55;97805.91;6295959;28;20119;-70
2022/10/23 13:55:42;;;;;;;3.05;2.03;;;;;;;1.05;39.65;97811.47;6296087;28;20125;-69
2022/10/23 13:58:50;;;;;;;3.40;2.25;;;;;;;0.93;40.50;97814.19;6295890;28;20449;-69
2022/10/23 14:01:51;;;;;;;2.80;1.52;;;;;;;0.99;40.15;97816.72;6295893;28;20044;-71
2022/10/23 14:04:53;;;;;;;3.80;1.70;;;;;;;0.95;40.84;97806.41;6295454;28;20053;-70
2022/10/23 14:07:54;;;;;;;2.22;1.40;;;;;;;0.87;40.65;97812.53;6295365;28;20524;-70
2022/10/23 14:10:59;;;;;;;1.55;1.15;;;;;;;0.70;41.39;97816.19;6295190;28;20040;-68
2022/10/23 14:14:01;;;;;;;2.00;1.20;;;;;;;0.61;41.66;97811.94;6295686;28;20045;-70
2022/10/23 14:17:05;;;;;;;2.92;1.67;;;;;;;0.69;41.50;97814.47;6295639;28;20082;-70
2022/10/23 14:20:07;;;;;;;1.75;1.10;;;;;;;0.54;41.75;97812.88;6295706;28;20048;-70
2022/10/23 14:23:09;;;;;;;2.13;1.38;;;;;;;0.31;42.28;97815.69;6295615;28;20510;-70
2022/10/23 14:26:14;;;;;;;1.60;1.25;;;;;;;0.20;42.14;97827.00;6295563;28;20493;-70
2022/10/23 14:29:15;;;;;;;1.20;0.82;;;;;;;0.20;42.49;97831.34;6295400;28;20063;-69
2022/10/23 14:32:19;;;;;;;1.83;1.15;;;;;;;0.36;42.48;97816.50;6295358;28;20494;-70
2022/10/23 14:35:20;;;;;;;2.65;1.33;;;;;;;0.26;42.72;97836.47;6295363;28;20055;-69
2022/10/23 14:38:25;;;;;;;2.70;1.42;;;;;;;0.03;42.59;97825.41;6295513;28;20556;-69
2022/10/23 14:41:27;;;;;;;2.00;0.98;;;;;;;-0.03;43.07;97834.97;6294667;28;20084;-68
2022/10/23 14:44:28;;;;;;;3.78;1.17;;;;;;;-0.14;43.48;97829.00;6295100;28;20143;-68
2022/10/23 14:47:30;;;;;;;1.70;0.95;;;;;;;-0.05;43.05;97836.69;6295018;28;20423;-69
2022/10/23 14:50:41;;;;;;;2.58;1.08;;;;;;;0.11;42.79;97827.06;6294956;28;20033;-70
2022/10/23 14:53:42;;;;;;;0.52;0.52;;;;;;;0.05;42.50;97831.44;6295164;28;20052;-70